createdAt,value
2019-06-19T00:00:14.441Z,20.50
2019-06-19T00:02:43.144Z,20.49
2019-06-19T00:05:12.799Z,20.49
2019-06-19T00:07:42.542Z,20.52
2019-06-19T00:10:12.377Z,20.51
2019-06-19T00:12:39.003Z,20.50
2019-06-19T00:15:06.154Z,20.46
2019-06-19T00:17:33.570Z,20.41
2019-06-19T00:20:02.851Z,20.41
2019-06-19T00:22:30.131Z,20.40
2019-06-19T00:24:57.338Z,20.42
2019-06-19T00:27:24.408Z,20.44
2019-06-19T00:29:51.647Z,20.41
2019-06-19T00:32:20.634Z,20.39
2019-06-19T00:34:47.825Z,20.39
2019-06-19T00:37:15.047Z,20.40
2019-06-19T00:39:42.670Z,20.44
2019-06-19T00:42:10.871Z,20.49
2019-06-19T00:44:40.721Z,20.50
2019-06-19T00:47:07.842Z,20.51
2019-06-19T00:49:35.017Z,20.50
2019-06-19T00:52:02.327Z,20.50
2019-06-19T00:54:31.734Z,20.51
2019-06-19T00:57:01.497Z,20.53
2019-06-19T00:59:31.081Z,20.56
2019-06-19T01:02:00.834Z,20.53
2019-06-19T01:04:27.209Z,20.52
2019-06-19T01:06:54.604Z,20.51
2019-06-19T01:09:22.156Z,20.49
2019-06-19T01:11:51.501Z,20.46
2019-06-19T01:14:21.049Z,20.40
2019-06-19T01:16:47.958Z,20.37
2019-06-19T01:19:15.278Z,20.30
2019-06-19T01:21:42.942Z,20.26
2019-06-19T01:24:10.648Z,20.23
2019-06-19T01:26:40.504Z,20.18
2019-06-19T01:29:07.342Z,20.15
2019-06-19T01:31:34.722Z,20.10
2019-06-19T01:34:02.006Z,20.05
2019-06-19T01:36:31.313Z,20.02
2019-06-19T01:39:00.721Z,19.98
2019-06-19T01:41:28.295Z,19.94
2019-06-19T01:43:55.989Z,19.94
2019-06-19T01:46:23.447Z,19.95
2019-06-19T01:48:51.913Z,19.95
2019-06-19T01:51:20.732Z,19.93
2019-06-19T01:54:17.569Z,19.96
2019-06-19T01:56:45.742Z,19.93
2019-06-19T01:59:13.081Z,19.93
2019-06-19T02:01:41.167Z,19.91
2019-06-19T02:04:11.547Z,19.87
2019-06-19T02:06:37.886Z,19.88
2019-06-19T02:09:06.678Z,19.86
2019-06-19T02:11:33.913Z,19.84
2019-06-19T02:14:01.250Z,19.81
2019-06-19T02:16:31.131Z,19.79
2019-06-19T02:18:58.103Z,19.78
2019-06-19T02:21:25.406Z,19.76
2019-06-19T02:23:52.834Z,19.75
2019-06-19T02:26:21.245Z,19.69
2019-06-19T02:28:50.622Z,19.65
2019-06-19T02:31:21.887Z,19.60
2019-06-19T02:33:47.725Z,19.54
2019-06-19T02:36:15.235Z,19.49
2019-06-19T02:38:42.663Z,19.40
2019-06-19T02:41:10.673Z,19.34
2019-06-19T02:43:38.164Z,19.29
2019-06-19T02:46:05.760Z,19.24
2019-06-19T02:48:33.080Z,19.21
2019-06-19T02:51:00.471Z,19.22
2019-06-19T02:53:27.893Z,19.21
2019-06-19T02:55:55.710Z,19.20
2019-06-19T02:58:23.033Z,19.19
2019-06-19T03:00:50.356Z,19.21
2019-06-19T03:03:17.799Z,19.26
2019-06-19T03:05:45.080Z,19.48
2019-06-19T03:08:12.440Z,19.72
2019-06-19T03:10:39.783Z,19.86
2019-06-19T03:13:07.248Z,19.90
2019-06-19T03:15:34.716Z,19.95
2019-06-19T03:18:02.114Z,20.03
2019-06-19T03:20:29.404Z,20.10
2019-06-19T03:22:56.760Z,20.18
2019-06-19T03:25:24.244Z,20.17
2019-06-19T03:27:51.565Z,20.19
2019-06-19T03:30:19.582Z,20.19
2019-06-19T03:32:46.875Z,20.20
2019-06-19T03:35:14.387Z,20.20
2019-06-19T03:37:41.770Z,20.19
2019-06-19T03:40:09.939Z,20.27
2019-06-19T03:42:37.465Z,20.31
2019-06-19T03:45:04.982Z,20.38
2019-06-19T03:47:32.510Z,20.31
2019-06-19T03:49:59.944Z,20.30
2019-06-19T03:52:27.294Z,20.24
2019-06-19T03:54:54.946Z,20.23
2019-06-19T03:57:22.517Z,20.25
2019-06-19T03:59:50.203Z,20.27
2019-06-19T04:02:17.575Z,20.29
2019-06-19T04:04:45.136Z,20.34
2019-06-19T04:07:12.468Z,20.46
2019-06-19T04:09:39.835Z,20.63
2019-06-19T04:12:07.227Z,20.85
2019-06-19T04:14:34.594Z,21.12
2019-06-19T04:17:01.846Z,21.40
2019-06-19T04:19:29.179Z,21.68
2019-06-19T04:21:56.625Z,21.99
2019-06-19T04:24:23.911Z,22.27
2019-06-19T04:26:51.424Z,22.53
2019-06-19T04:29:21.813Z,22.78
2019-06-19T04:32:01.465Z,22.98
2019-06-19T04:34:18.464Z,23.24
2019-06-19T04:36:48.406Z,23.54
2019-06-19T04:39:15.937Z,25.08
2019-06-19T04:41:43.350Z,27.58
2019-06-19T04:44:10.765Z,29.82
2019-06-19T04:46:38.252Z,31.44
2019-06-19T04:49:05.866Z,31.90
2019-06-19T04:51:33.287Z,31.78
2019-06-19T04:54:00.622Z,30.77
2019-06-19T04:56:28.023Z,29.22
2019-06-19T04:58:55.520Z,27.99
2019-06-19T05:01:24.654Z,27.22
2019-06-19T05:03:52.048Z,26.54
2019-06-19T05:06:19.483Z,25.98
2019-06-19T05:08:48.764Z,25.50
2019-06-19T05:11:16.523Z,25.23
2019-06-19T05:13:43.913Z,25.09
2019-06-19T05:16:11.553Z,24.88
2019-06-19T05:18:38.781Z,24.77
2019-06-19T05:21:06.171Z,24.79
2019-06-19T05:23:34.047Z,24.89
2019-06-19T05:26:01.383Z,25.34
2019-06-19T05:28:28.859Z,26.48
2019-06-19T05:30:56.203Z,28.15
2019-06-19T05:33:23.555Z,29.32
2019-06-19T05:35:50.912Z,30.71
2019-06-19T05:38:18.187Z,31.79
2019-06-19T05:40:46.383Z,32.94
2019-06-19T05:43:13.683Z,34.20
2019-06-19T05:45:41.043Z,36.55
2019-06-19T05:48:08.278Z,38.87
2019-06-19T05:50:35.603Z,40.65
2019-06-19T05:53:03.729Z,42.35
2019-06-19T05:55:31.626Z,43.31
2019-06-19T05:57:59.092Z,43.76
2019-06-19T06:00:29.248Z,43.96
2019-06-19T06:02:56.654Z,44.18
2019-06-19T06:05:23.979Z,45.23
2019-06-19T06:07:51.494Z,46.11
2019-06-19T06:10:18.899Z,46.55
2019-06-19T06:12:46.464Z,47.06
2019-06-19T06:15:13.914Z,48.15
2019-06-19T06:17:41.224Z,48.65
2019-06-19T06:20:24.308Z,48.83
2019-06-19T06:22:51.687Z,49.41
2019-06-19T06:25:19.080Z,49.87
2019-06-19T06:27:46.535Z,50.34
2019-06-19T06:30:13.821Z,50.70
2019-06-19T06:32:41.148Z,51.23
2019-06-19T06:35:08.846Z,51.37
2019-06-19T06:37:36.193Z,51.77
2019-06-19T06:40:04.715Z,52.37
2019-06-19T06:42:32.111Z,52.80
2019-06-19T06:44:59.520Z,52.97
2019-06-19T06:47:26.817Z,53.10
2019-06-19T06:49:54.194Z,53.54
2019-06-19T06:52:21.431Z,54.19
2019-06-19T06:54:48.821Z,54.21
2019-06-19T06:57:16.203Z,54.20
2019-06-19T06:59:44.088Z,54.38
2019-06-19T07:02:12.897Z,55.13
2019-06-19T07:04:40.758Z,55.28
2019-06-19T07:07:08.021Z,55.02
2019-06-19T07:09:35.533Z,55.58
2019-06-19T07:12:03.077Z,55.52
2019-06-19T07:14:30.424Z,55.70
2019-06-19T07:16:58.181Z,55.91
2019-06-19T07:19:25.395Z,56.37
2019-06-19T07:21:52.738Z,56.15
2019-06-19T07:24:20.030Z,55.67
2019-06-19T07:26:52.878Z,55.75
2019-06-19T07:29:16.626Z,55.52
2019-06-19T07:31:43.958Z,55.40
2019-06-19T07:34:11.282Z,55.34
2019-06-19T07:36:38.601Z,55.44
2019-06-19T07:39:05.933Z,55.88
2019-06-19T07:41:33.533Z,56.18
2019-06-19T07:44:01.056Z,56.64
2019-06-19T07:46:28.486Z,56.35
2019-06-19T07:48:55.830Z,55.53
2019-06-19T07:51:23.190Z,55.43
2019-06-19T07:53:50.875Z,56.12
2019-06-19T07:56:18.423Z,57.03
2019-06-19T07:58:46.680Z,57.35
2019-06-19T08:01:14.215Z,57.10
2019-06-19T08:03:54.270Z,57.41
2019-06-19T08:06:10.972Z,57.27
2019-06-19T08:08:38.316Z,57.75
2019-06-19T08:11:05.714Z,57.50
2019-06-19T08:13:33.088Z,57.56
2019-06-19T08:16:00.434Z,58.09
2019-06-19T08:18:27.860Z,58.27
2019-06-19T08:20:55.035Z,58.84
2019-06-19T08:23:22.697Z,59.20
2019-06-19T08:25:50.968Z,59.40
2019-06-19T08:28:18.306Z,59.19
2019-06-19T08:30:45.674Z,58.64
2019-06-19T08:33:13.173Z,58.73
2019-06-19T08:35:40.361Z,58.37
2019-06-19T08:38:07.641Z,58.57
2019-06-19T08:40:34.985Z,58.47
2019-06-19T08:43:02.182Z,58.44
2019-06-19T08:45:29.630Z,58.97
2019-06-19T08:47:56.917Z,58.64
2019-06-19T08:50:24.172Z,58.10
2019-06-19T08:52:51.527Z,58.43
2019-06-19T08:55:19.272Z,58.17
2019-06-19T08:57:46.717Z,56.92
2019-06-19T09:00:19.972Z,57.44
2019-06-19T09:02:47.274Z,58.15
2019-06-19T09:05:14.919Z,57.90
2019-06-19T09:07:42.391Z,56.70
2019-06-19T09:10:16.277Z,56.22
2019-06-19T09:12:43.661Z,56.09
2019-06-19T09:15:11.378Z,55.93
2019-06-19T09:17:38.607Z,55.07
2019-06-19T09:20:06.026Z,54.89
2019-06-19T09:22:33.386Z,54.93
2019-06-19T09:25:01.190Z,55.16
2019-06-19T09:27:28.657Z,55.92
2019-06-19T09:29:56.345Z,55.40
2019-06-19T09:32:23.954Z,54.20
2019-06-19T09:34:51.672Z,53.80
2019-06-19T09:37:19.070Z,52.69
2019-06-19T09:39:46.614Z,52.21
2019-06-19T09:42:13.975Z,51.97
2019-06-19T09:44:41.698Z,52.19
2019-06-19T09:47:09.128Z,52.57
2019-06-19T09:49:36.510Z,51.88
2019-06-19T09:52:03.933Z,51.67
2019-06-19T09:54:31.261Z,51.70
2019-06-19T09:56:58.630Z,51.03
2019-06-19T09:59:26.040Z,50.32
2019-06-19T10:01:54.319Z,50.23
2019-06-19T10:04:21.711Z,49.05
2019-06-19T10:06:48.988Z,48.12
2019-06-19T10:09:16.437Z,47.05
2019-06-19T10:11:43.689Z,44.93
2019-06-19T10:14:11.087Z,43.04
2019-06-19T10:16:38.298Z,40.70
2019-06-19T10:19:05.651Z,39.18
2019-06-19T10:21:33.073Z,37.87
2019-06-19T10:24:00.435Z,36.99
2019-06-19T10:26:27.771Z,36.14
2019-06-19T10:28:56.022Z,35.25
2019-06-19T10:31:23.515Z,34.94
2019-06-19T10:33:50.982Z,34.66
2019-06-19T10:36:18.334Z,34.41
2019-06-19T10:38:45.681Z,34.24
2019-06-19T10:41:13.079Z,34.02
2019-06-19T10:43:40.407Z,33.73
2019-06-19T10:46:07.803Z,33.65
2019-06-19T10:48:35.131Z,33.70
2019-06-19T10:51:02.351Z,33.62
2019-06-19T10:53:29.650Z,33.59
2019-06-19T10:55:57.088Z,33.47
2019-06-19T10:58:24.329Z,33.44
2019-06-19T11:00:51.648Z,33.55
2019-06-19T11:03:19.902Z,33.46
2019-06-19T11:05:47.191Z,33.51
2019-06-19T11:08:14.587Z,33.53
2019-06-19T11:10:42.460Z,33.68
2019-06-19T11:13:09.953Z,33.76
2019-06-19T11:15:37.702Z,33.78
2019-06-19T11:18:05.071Z,33.80
2019-06-19T11:20:32.400Z,33.81
2019-06-19T11:22:59.788Z,33.82
2019-06-19T11:25:27.123Z,33.84
2019-06-19T11:27:54.497Z,33.77
2019-06-19T11:30:22.262Z,33.68
2019-06-19T11:32:49.540Z,33.55
2019-06-19T11:35:16.856Z,33.29
2019-06-19T11:37:44.521Z,33.21
2019-06-19T11:40:11.999Z,33.42
2019-06-19T11:42:39.481Z,33.52
2019-06-19T11:45:07.152Z,33.49
2019-06-19T11:47:34.897Z,33.56
2019-06-19T11:50:02.371Z,33.56
2019-06-19T11:52:29.969Z,33.44
2019-06-19T11:54:57.533Z,33.44
2019-06-19T11:57:25.023Z,33.50
2019-06-19T11:59:53.774Z,33.43
2019-06-19T12:02:21.317Z,33.43
2019-06-19T12:04:49.640Z,33.51
2019-06-19T12:07:17.454Z,33.60
2019-06-19T12:09:44.918Z,33.69
2019-06-19T12:12:12.257Z,33.74
2019-06-19T12:14:39.700Z,33.81
2019-06-19T12:17:07.044Z,33.97
2019-06-19T12:19:34.467Z,33.81
2019-06-19T12:22:01.728Z,33.74
2019-06-19T12:24:31.306Z,33.74
2019-06-19T12:26:58.491Z,33.81
2019-06-19T12:29:26.157Z,33.83
2019-06-19T12:31:53.498Z,33.83
2019-06-19T12:34:20.934Z,33.86
2019-06-19T12:36:48.330Z,33.86
2019-06-19T12:39:16.426Z,33.89
2019-06-19T12:41:43.960Z,33.85
2019-06-19T12:44:11.281Z,33.85
2019-06-19T12:46:38.901Z,33.84
2019-06-19T12:49:06.254Z,33.82
2019-06-19T12:51:33.696Z,33.65
2019-06-19T12:54:01.096Z,33.48
2019-06-19T12:56:28.508Z,33.45
2019-06-19T12:58:55.992Z,33.58
2019-06-19T13:01:23.525Z,33.56
2019-06-19T13:03:50.702Z,33.47
2019-06-19T13:06:18.439Z,33.54
2019-06-19T13:08:45.713Z,33.69
2019-06-19T13:11:12.971Z,33.74
2019-06-19T13:13:40.293Z,33.83
2019-06-19T13:16:10.280Z,33.86
2019-06-19T13:18:37.006Z,34.07
2019-06-19T13:21:04.387Z,34.27
2019-06-19T13:23:31.619Z,34.55
2019-06-19T13:25:58.973Z,34.68
2019-06-19T13:28:26.393Z,34.82
2019-06-19T13:30:53.761Z,35.14
2019-06-19T13:33:21.185Z,35.51
2019-06-19T13:35:48.286Z,35.64
2019-06-19T13:38:15.517Z,35.79
2019-06-19T13:40:42.978Z,35.89
2019-06-19T13:43:10.301Z,36.02
2019-06-19T13:45:37.403Z,35.98
2019-06-19T13:48:06.458Z,35.69
2019-06-19T13:50:33.869Z,35.61
2019-06-19T13:53:01.158Z,35.48
2019-06-19T13:55:28.437Z,35.33
2019-06-19T13:57:55.833Z,35.16
2019-06-19T14:00:23.267Z,34.98
2019-06-19T14:02:50.659Z,34.75
2019-06-19T14:05:18.315Z,34.59
2019-06-19T14:07:45.899Z,34.50
2019-06-19T14:10:13.428Z,34.51
2019-06-19T14:12:40.794Z,34.46
2019-06-19T14:15:08.601Z,34.40
2019-06-19T14:17:36.120Z,34.21
2019-06-19T14:20:04.171Z,34.03
2019-06-19T14:22:31.611Z,33.98
2019-06-19T14:24:59.009Z,33.97
2019-06-19T14:27:26.329Z,33.91
2019-06-19T14:29:53.572Z,33.81
2019-06-19T14:32:21.103Z,33.74
2019-06-19T14:34:48.298Z,33.71
2019-06-19T14:37:15.735Z,33.67
2019-06-19T14:39:42.974Z,33.63
2019-06-19T14:42:10.321Z,33.62
2019-06-19T14:44:39.886Z,33.57
2019-06-19T14:47:06.746Z,33.52
2019-06-19T14:49:34.015Z,33.43
2019-06-19T14:52:01.401Z,33.24
2019-06-19T14:54:28.623Z,32.94
2019-06-19T14:56:56.143Z,32.76
2019-06-19T14:59:23.383Z,32.64
2019-06-19T15:01:54.400Z,32.51
2019-06-19T15:04:20.093Z,32.60
2019-06-19T15:06:48.038Z,32.74
2019-06-19T15:09:15.122Z,32.94
2019-06-19T15:11:42.477Z,32.97
2019-06-19T15:14:09.608Z,32.98
2019-06-19T15:16:36.904Z,33.03
2019-06-19T15:19:04.157Z,32.89
2019-06-19T15:21:31.465Z,32.69
2019-06-19T15:23:58.726Z,32.44
2019-06-19T15:26:25.931Z,32.26
2019-06-19T15:28:53.182Z,32.15
2019-06-19T15:31:20.660Z,31.95
2019-06-19T15:33:47.838Z,31.79
2019-06-19T15:36:15.153Z,31.66
2019-06-19T15:38:42.491Z,31.58
2019-06-19T15:41:09.718Z,31.58
2019-06-19T15:43:36.948Z,31.60
2019-06-19T15:46:04.168Z,31.75
2019-06-19T15:48:31.378Z,31.68
2019-06-19T15:50:58.768Z,31.68
2019-06-19T15:53:26.148Z,31.69
2019-06-19T15:55:53.238Z,31.75
2019-06-19T15:58:20.930Z,31.98
2019-06-19T16:00:48.263Z,32.29
2019-06-19T16:03:15.863Z,32.63
2019-06-19T16:05:43.124Z,33.04
2019-06-19T16:08:10.354Z,33.37
2019-06-19T16:10:37.538Z,33.59
2019-06-19T16:13:05.086Z,33.71
2019-06-19T16:15:32.370Z,33.78
2019-06-19T16:17:59.452Z,33.70
2019-06-19T16:20:26.735Z,33.64
2019-06-19T16:22:53.998Z,33.36
2019-06-19T16:25:21.340Z,33.16
2019-06-19T16:27:48.684Z,32.90
2019-06-19T16:30:16.430Z,32.75
2019-06-19T16:32:43.712Z,32.67
2019-06-19T16:35:11.268Z,32.65
2019-06-19T16:37:38.986Z,32.73
2019-06-19T16:40:09.167Z,32.71
2019-06-19T16:42:36.545Z,32.60
2019-06-19T16:45:04.714Z,32.45
2019-06-19T16:47:32.285Z,32.30
2019-06-19T16:49:59.602Z,32.24
2019-06-19T16:52:27.173Z,32.25
2019-06-19T16:54:54.415Z,32.32
2019-06-19T16:57:21.627Z,32.25
2019-06-19T16:59:49.017Z,32.29
2019-06-19T17:02:16.177Z,32.35
2019-06-19T17:04:43.385Z,32.40
2019-06-19T17:07:10.541Z,32.40
2019-06-19T17:09:37.923Z,32.41
2019-06-19T17:12:05.277Z,32.25
2019-06-19T17:14:32.739Z,32.06
2019-06-19T17:17:00.362Z,31.91
2019-06-19T17:19:27.639Z,31.89
2019-06-19T17:21:54.873Z,31.80
2019-06-19T17:24:21.971Z,31.68
2019-06-19T17:26:49.187Z,31.66
2019-06-19T17:29:16.345Z,31.70
2019-06-19T17:31:43.549Z,31.69
2019-06-19T17:34:10.728Z,31.66
2019-06-19T17:36:37.943Z,31.73
2019-06-19T17:39:20.779Z,31.73
2019-06-19T17:41:35.959Z,31.73
2019-06-19T17:44:03.550Z,31.88
2019-06-19T17:46:30.741Z,32.17
2019-06-19T17:48:58.255Z,32.33
2019-06-19T17:51:25.653Z,32.49
2019-06-19T17:53:52.881Z,32.65
2019-06-19T17:56:20.386Z,32.76
2019-06-19T17:58:47.638Z,32.81
2019-06-19T18:01:14.892Z,32.70
2019-06-19T18:03:42.413Z,32.31
2019-06-19T18:06:09.723Z,31.99
2019-06-19T18:08:37.004Z,31.74
2019-06-19T18:11:04.314Z,31.45
2019-06-19T18:13:31.827Z,31.27
2019-06-19T18:15:59.032Z,31.18
2019-06-19T18:18:26.269Z,30.99
2019-06-19T18:20:53.331Z,30.76
2019-06-19T18:23:20.514Z,30.46
2019-06-19T18:25:47.894Z,30.25
2019-06-19T18:28:15.596Z,30.13
2019-06-19T18:30:42.967Z,30.15
2019-06-19T18:33:10.439Z,30.04
2019-06-19T18:35:37.845Z,29.86
2019-06-19T18:38:05.053Z,29.66
2019-06-19T18:40:32.349Z,29.47
2019-06-19T18:42:59.552Z,29.31
2019-06-19T18:45:27.032Z,29.23
2019-06-19T18:47:57.041Z,29.09
2019-06-19T18:50:23.511Z,28.94
2019-06-19T18:52:50.718Z,28.77
2019-06-19T18:55:17.947Z,28.64
2019-06-19T18:57:45.165Z,28.51
2019-06-19T19:00:14.016Z,28.43
2019-06-19T19:02:42.419Z,28.32
2019-06-19T19:05:10.607Z,28.22
2019-06-19T19:07:38.005Z,28.04
2019-06-19T19:10:12.587Z,27.81
2019-06-19T19:12:35.785Z,27.69
2019-06-19T19:15:03.640Z,27.57
2019-06-19T19:17:31.039Z,27.40
2019-06-19T19:19:58.358Z,27.29
2019-06-19T19:22:25.743Z,27.17
2019-06-19T19:24:53.323Z,26.99
2019-06-19T19:27:20.562Z,26.79
2019-06-19T19:29:47.793Z,26.63
2019-06-19T19:32:16.141Z,26.64
2019-06-19T19:34:43.565Z,26.64
2019-06-19T19:37:11.416Z,26.53
2019-06-19T19:39:39.018Z,26.50
2019-06-19T19:42:09.510Z,26.34
2019-06-19T19:44:37.197Z,26.37
2019-06-19T19:47:09.358Z,26.22
2019-06-19T19:49:36.566Z,26.18
2019-06-19T19:52:04.426Z,26.25
2019-06-19T19:54:32.108Z,26.27
2019-06-19T19:56:59.772Z,26.20
2019-06-19T19:59:27.195Z,26.06
2019-06-19T20:01:54.699Z,26.01
2019-06-19T20:04:22.071Z,26.02
2019-06-19T20:06:50.377Z,26.06
2019-06-19T20:09:17.875Z,25.96
2019-06-19T20:11:45.703Z,25.92
2019-06-19T20:14:12.930Z,25.89
2019-06-19T20:16:40.198Z,25.78
2019-06-19T20:19:07.409Z,25.59
2019-06-19T20:21:34.636Z,25.51
2019-06-19T20:24:02.392Z,25.39
2019-06-19T20:26:31.842Z,25.32
2019-06-19T20:28:59.376Z,25.31
2019-06-19T20:31:27.862Z,25.23
2019-06-19T20:33:55.097Z,25.21
2019-06-19T20:36:22.316Z,25.13
2019-06-19T20:38:49.594Z,25.03
2019-06-19T20:41:16.757Z,25.04
2019-06-19T20:43:44.125Z,24.94
2019-06-19T20:46:24.745Z,24.90
2019-06-19T20:48:40.801Z,24.85
2019-06-19T20:51:08.297Z,24.88
2019-06-19T20:53:35.580Z,24.86
2019-06-19T20:56:03.086Z,24.83
2019-06-19T20:58:30.635Z,24.78
2019-06-19T21:00:58.224Z,24.78
2019-06-19T21:03:25.463Z,24.71
2019-06-19T21:05:52.658Z,24.59
2019-06-19T21:08:29.481Z,24.52
2019-06-19T21:11:19.208Z,24.42
2019-06-19T21:13:33.141Z,24.40
2019-06-19T21:16:03.291Z,24.37
2019-06-19T21:18:29.956Z,24.39
2019-06-19T21:20:57.240Z,24.34
2019-06-19T21:23:25.019Z,24.31
2019-06-19T21:25:52.457Z,24.30
2019-06-19T21:30:46.531Z,24.28
2019-06-19T21:33:13.900Z,24.40
2019-06-19T21:35:41.158Z,24.39
2019-06-19T21:38:08.297Z,24.53
2019-06-19T21:40:35.592Z,24.48
2019-06-19T21:43:02.999Z,24.46
2019-06-19T21:45:30.668Z,24.40
2019-06-19T21:47:58.020Z,24.30
2019-06-19T21:50:25.141Z,24.21
2019-06-19T21:52:52.429Z,24.12
2019-06-19T21:55:19.950Z,24.05
2019-06-19T21:57:47.206Z,23.99
2019-06-19T22:00:18.674Z,24.01
2019-06-19T22:02:47.959Z,24.06
2019-06-19T22:05:15.632Z,24.04
2019-06-19T22:07:42.837Z,24.11
2019-06-19T22:10:11.722Z,24.35
2019-06-19T22:12:39.556Z,24.43
2019-06-19T22:15:08.684Z,24.44
2019-06-19T22:17:35.925Z,24.38
2019-06-19T22:20:03.825Z,24.33
2019-06-19T22:22:31.365Z,24.25
2019-06-19T22:24:58.810Z,24.14
2019-06-19T22:27:26.770Z,24.05
2019-06-19T22:29:54.123Z,24.12
2019-06-19T22:32:21.490Z,24.11
2019-06-19T22:34:48.662Z,23.95
2019-06-19T22:37:15.887Z,23.87
2019-06-19T22:39:43.408Z,23.82
2019-06-19T22:42:12.084Z,23.72
2019-06-19T22:44:39.573Z,23.70
2019-06-19T22:47:06.890Z,23.65
2019-06-19T22:49:34.245Z,23.64
2019-06-19T22:52:01.422Z,23.57
2019-06-19T22:54:29.228Z,23.61
2019-06-19T22:56:56.588Z,23.62
2019-06-19T22:59:23.745Z,23.63
2019-06-19T23:02:07.216Z,23.64
2019-06-19T23:04:34.779Z,23.61
2019-06-19T23:07:02.062Z,23.60
2019-06-19T23:09:29.335Z,23.60
2019-06-19T23:11:56.531Z,23.63
2019-06-19T23:14:23.803Z,23.58
2019-06-19T23:16:51.072Z,23.56
2019-06-19T23:19:18.250Z,23.57
2019-06-19T23:21:45.451Z,23.59
2019-06-19T23:24:13.213Z,23.63
2019-06-19T23:26:40.504Z,23.70
2019-06-19T23:29:07.706Z,23.70
2019-06-19T23:31:35.153Z,23.76
2019-06-19T23:34:02.627Z,23.79
2019-06-19T23:36:30.266Z,23.82
2019-06-19T23:38:57.808Z,23.78
2019-06-19T23:41:25.060Z,23.72
2019-06-19T23:43:52.284Z,23.69
2019-06-19T23:46:19.953Z,23.65
2019-06-19T23:48:47.158Z,23.64
2019-06-19T23:51:14.382Z,23.63
2019-06-19T23:53:41.572Z,23.60
2019-06-19T23:56:08.645Z,23.60
2019-06-19T23:58:35.826Z,23.55
